Time;durP1;ratioP1;P1;durP2;ratioP2;P2;SDS_P1;SDS_P2;PMS_P1;PMS_P2;Temp;Humidity;BMP_temperature;BMP_pressure;BME280_temperature;BME280_humidity;BME280_pressure;Samples;Min_cycle;Max_cycle;Signal;HPM_P1;HPM_P2
2022/04/13 00:02:02;;;;;;;8.07;4.07;;;;;;;-145.69;97.06;71464.09;5074060;28;20204;-74
2022/04/13 00:04:28;;;;;;;10.00;3.60;;;;;;;-145.69;96.89;71474.03;5073830;28;20233;-74
2022/04/13 00:06:55;;;;;;;6.93;3.40;;;;;;;-145.69;97.63;71489.94;5073963;28;20199;-74
2022/04/13 00:09:21;;;;;;;5.63;3.30;;;;;;;-145.69;97.26;71503.88;5073285;28;20209;-74
2022/04/13 00:11:50;;;;;;;6.53;3.43;;;;;;;-145.69;97.74;71515.81;5074003;28;20198;-74
2022/04/13 00:14:16;;;;;;;6.27;3.30;;;;;;;-145.69;97.71;71523.78;5073719;28;20293;-74
2022/04/13 00:16:43;;;;;;;9.90;3.80;;;;;;;-145.69;97.36;71515.81;5073583;28;20227;-74
2022/04/13 00:19:09;;;;;;;6.23;3.50;;;;;;;-145.69;97.56;71513.81;5073569;28;20689;-75
2022/04/13 00:21:36;;;;;;;5.27;2.90;;;;;;;-145.69;97.13;71525.78;5073526;28;20210;-74
2022/04/13 00:24:02;;;;;;;7.37;3.00;;;;;;;-145.69;98.45;71533.72;5073330;28;20230;-74
2022/04/13 00:26:29;;;;;;;5.67;2.50;;;;;;;-145.69;99.47;71545.66;5073643;28;20206;-74
2022/04/13 00:28:56;;;;;;;4.50;2.63;;;;;;;-145.69;98.19;71533.72;5073270;28;20202;-74
2022/04/13 00:31:23;;;;;;;6.15;2.92;;;;;;;-145.69;99.10;71545.66;5072012;28;20434;-74
2022/04/13 00:33:49;;;;;;;5.13;2.50;;;;;;;-145.69;99.58;71557.59;5073443;28;20210;-75
2022/04/13 00:36:16;;;;;;;5.63;2.40;;;;;;;-145.69;99.96;71575.50;5073300;28;20237;-74
2022/04/13 00:38:42;;;;;;;6.73;2.87;;;;;;;-145.69;100.00;71583.47;5073271;28;20203;-74
2022/04/13 00:41:09;;;;;;;5.43;2.50;;;;;;;-145.69;100.00;71579.50;5073232;28;20230;-75
2022/04/13 00:43:35;;;;;;;4.70;3.00;;;;;;;-145.69;100.00;71579.50;5072953;28;20223;-74
2022/04/13 00:46:03;;;;;;;5.63;2.97;;;;;;;-145.69;100.00;71593.44;5073053;28;20199;-74
2022/04/13 00:48:32;;;;;;;4.53;2.43;;;;;;;-145.69;100.00;71595.41;5073109;28;20768;-74
2022/04/13 00:50:59;;;;;;;6.23;2.87;;;;;;;-145.69;100.00;71609.34;5072661;28;20206;-74
2022/04/13 00:53:26;;;;;;;7.80;2.83;;;;;;;-145.69;100.00;71597.41;5072980;28;20569;-74
2022/04/13 00:55:56;;;;;;;9.47;2.87;;;;;;;-145.69;100.00;71599.41;5073060;28;20206;-74
2022/04/13 00:58:23;;;;;;;4.60;2.43;;;;;;;-145.69;100.00;71605.38;5072995;28;20230;-74
2022/04/13 01:00:50;;;;;;;4.63;2.60;;;;;;;-145.69;100.00;71597.41;5073063;28;20199;-74
2022/04/13 01:03:19;;;;;;;5.17;2.50;;;;;;;-145.69;100.00;71593.44;5072636;28;20276;-74
2022/04/13 01:05:46;;;;;;;6.47;2.80;;;;;;;-145.69;100.00;71593.44;5073150;28;20216;-74
2022/04/13 01:08:15;;;;;;;7.17;2.40;;;;;;;-145.69;100.00;71597.41;5072609;28;20539;-74
2022/04/13 01:10:42;;;;;;;7.83;2.77;;;;;;;-145.69;100.00;71599.41;5072991;28;20206;-74
2022/04/13 01:13:08;;;;;;;7.10;2.73;;;;;;;-145.69;100.00;71609.34;5072838;28;20206;-74
2022/04/13 01:15:35;;;;;;;6.40;2.97;;;;;;;-145.69;100.00;71621.28;5072777;28;20226;-74
2022/04/13 01:18:02;;;;;;;4.73;2.50;;;;;;;-145.69;100.00;71617.31;5072618;28;20475;-74
2022/04/13 01:20:31;;;;;;;4.50;2.77;;;;;;;-145.69;100.00;71627.25;5072755;28;20677;-74
2022/04/13 01:22:58;;;;;;;5.07;2.57;;;;;;;-145.69;100.00;71623.28;5072451;28;20203;-74
2022/04/13 01:25:25;;;;;;;7.13;2.80;;;;;;;-145.69;100.00;71621.28;5072739;28;20210;-74
2022/04/13 01:27:51;;;;;;;6.20;2.70;;;;;;;-145.69;100.00;71617.31;5072657;28;20199;-74
2022/04/13 01:30:18;;;;;;;5.17;2.40;;;;;;;-145.69;100.00;71629.25;5072566;28;20200;-74
2022/04/13 01:32:45;;;;;;;5.67;2.63;;;;;;;-145.69;100.00;71631.25;5072856;28;20203;-74
2022/04/13 01:35:11;;;;;;;8.30;2.50;;;;;;;-145.69;100.00;71657.09;5072714;28;20207;-74
2022/04/13 01:37:38;;;;;;;10.50;2.97;;;;;;;-145.69;100.00;71675.00;5072664;28;20624;-74
2022/04/13 01:40:07;;;;;;;5.67;2.57;;;;;;;-145.69;100.00;71671.03;5072446;28;20592;-74
2022/04/13 01:42:33;;;;;;;5.27;2.73;;;;;;;-145.69;100.00;71673.03;5074433;28;20203;-74
2022/04/13 01:45:00;;;;;;;7.90;2.70;;;;;;;-145.69;100.00;71665.06;5076238;28;20256;-74
2022/04/13 01:47:26;;;;;;;4.53;2.50;;;;;;;-145.69;100.00;71649.16;5076552;28;20195;-74
2022/04/13 01:49:53;;;;;;;4.70;2.57;;;;;;;-145.69;100.00;71663.06;5076284;28;20570;-74
2022/04/13 01:52:19;;;;;;;5.37;2.47;;;;;;;-145.69;100.00;71663.06;5074408;28;20442;-74
2022/04/13 01:54:46;;;;;;;4.60;2.33;;;;;;;-145.69;100.00;71677.00;5057266;28;20192;-74
2022/04/13 01:57:13;;;;;;;4.13;2.27;;;;;;;-145.69;100.00;71688.94;5064008;28;20199;-74
2022/04/13 01:59:40;;;;;;;9.97;2.60;;;;;;;-145.69;100.00;71688.94;5076076;28;20210;-74
2022/04/13 02:02:07;;;;;;;6.70;3.07;;;;;;;-145.69;100.00;71679.00;5076283;28;20213;-74
2022/04/13 02:04:34;;;;;;;4.47;2.60;;;;;;;-145.69;100.00;71692.94;5076201;28;20234;-74
2022/04/13 02:07:00;;;;;;;5.07;2.60;;;;;;;-145.69;100.00;71708.84;5076186;28;20244;-74
2022/04/13 02:09:27;;;;;;;5.57;2.77;;;;;;;-145.69;100.00;71712.81;5076035;28;20608;-74
2022/04/13 02:11:54;;;;;;;4.17;2.27;;;;;;;-145.69;100.00;71716.81;5075395;28;20193;-74
2022/04/13 02:14:22;;;;;;;5.50;2.60;;;;;;;-145.69;100.00;71704.88;5075661;28;20203;-74
2022/04/13 02:16:48;;;;;;;5.90;2.77;;;;;;;-145.69;100.00;71706.84;5076020;28;20249;-74
2022/04/13 02:19:15;;;;;;;8.07;2.70;;;;;;;-145.69;100.00;71712.81;5075987;28;20198;-74
2022/04/13 02:21:41;;;;;;;5.00;2.23;;;;;;;-145.69;100.00;71720.78;5075553;28;20202;-74
2022/04/13 02:24:08;;;;;;;8.27;2.60;;;;;;;-145.69;100.00;71712.81;5075749;28;20262;-74
2022/04/13 02:26:35;;;;;;;7.97;2.60;;;;;;;-145.69;100.00;71712.81;5075291;28;20199;-74
2022/04/13 02:29:01;;;;;;;4.63;2.20;;;;;;;-145.69;100.00;71722.78;5075758;28;20187;-74
2022/04/13 02:31:29;;;;;;;7.17;2.73;;;;;;;-145.69;100.00;71720.78;5075407;28;20205;-74
2022/04/13 02:33:56;;;;;;;11.27;2.70;;;;;;;-145.69;100.00;71708.84;5075797;28;20198;-74
2022/04/13 02:36:23;;;;;;;2.70;2.00;;;;;;;-145.69;100.00;71728.75;5075690;28;20199;-74
2022/04/13 02:38:49;;;;;;;4.43;2.23;;;;;;;-145.69;100.00;71760.59;5075501;28;20203;-74
2022/04/13 02:41:16;;;;;;;7.57;2.07;;;;;;;-145.69;100.00;71772.53;5075065;28;20565;-73
2022/04/13 02:43:42;;;;;;;6.60;2.10;;;;;;;-145.69;100.00;71788.44;5075499;28;20226;-74
2022/04/13 02:46:09;;;;;;;5.33;2.23;;;;;;;-145.69;100.00;71800.38;5075481;28;20195;-74
2022/04/13 02:48:37;;;;;;;4.63;2.43;;;;;;;-145.69;100.00;71796.41;5075303;28;20346;-74
2022/04/13 02:51:03;;;;;;;5.43;2.23;;;;;;;-145.69;100.00;71792.44;5075263;28;20206;-74
2022/04/13 02:53:31;;;;;;;2.83;1.90;;;;;;;-145.69;100.00;71772.53;5075031;28;20202;-74
2022/04/13 02:55:58;;;;;;;4.97;2.10;;;;;;;-145.69;100.00;71784.47;5074798;28;20221;-74
2022/04/13 02:58:24;;;;;;;3.30;2.23;;;;;;;-145.69;100.00;71780.50;5075443;28;20557;-74
2022/04/13 03:00:51;;;;;;;7.03;1.80;;;;;;;-145.69;100.00;71788.44;5075269;28;20680;-74
2022/04/13 03:03:17;;;;;;;3.20;2.03;;;;;;;-145.69;100.00;71792.44;5074774;28;20657;-74
2022/04/13 03:05:45;;;;;;;5.87;1.97;;;;;;;-145.69;100.00;71756.59;5075087;28;20198;-74
2022/04/13 03:08:12;;;;;;;3.30;1.67;;;;;;;-145.69;100.00;71728.75;5074953;28;20195;-74
2022/04/13 03:10:38;;;;;;;2.97;1.60;;;;;;;-145.69;100.00;71732.72;5074918;28;20199;-74
2022/04/13 03:13:05;;;;;;;3.27;1.60;;;;;;;-145.69;100.00;71742.69;5075137;28;20206;-74
2022/04/13 03:15:31;;;;;;;4.90;2.07;;;;;;;-145.69;100.00;71764.56;5074676;28;20725;-74
2022/04/13 03:17:58;;;;;;;4.83;2.07;;;;;;;-145.69;100.00;71800.38;5074923;28;20199;-74
2022/04/13 03:20:24;;;;;;;4.28;1.90;;;;;;;-145.69;100.00;71812.31;5074148;28;20445;-74
2022/04/13 03:22:52;;;;;;;4.40;2.20;;;;;;;-145.69;100.00;71830.25;5074607;28;20230;-74
2022/04/13 03:25:19;;;;;;;7.00;2.27;;;;;;;-145.69;100.00;71844.16;5074808;28;20231;-74
2022/04/13 03:27:46;;;;;;;2.77;1.60;;;;;;;-145.69;100.00;71802.38;5074904;28;20203;-74
2022/04/13 03:30:16;;;;;;;3.55;1.83;;;;;;;-145.69;100.00;71824.25;5073337;28;20453;-74
2022/04/13 03:32:43;;;;;;;6.43;2.00;;;;;;;-145.69;100.00;71830.25;5074673;28;20206;-74
2022/04/13 03:35:11;;;;;;;3.50;2.10;;;;;;;-145.69;100.00;71820.28;5074594;28;20202;-74
2022/04/13 03:37:38;;;;;;;3.13;1.83;;;;;;;-145.69;100.00;71828.25;5074117;28;20276;-74
2022/04/13 03:40:07;;;;;;;6.07;2.13;;;;;;;-145.69;100.00;71818.31;5074573;28;20228;-74
2022/04/13 03:42:35;;;;;;;5.63;1.63;;;;;;;-145.69;100.00;71824.25;5074471;28;20206;-74
2022/04/13 03:45:03;;;;;;;3.73;1.90;;;;;;;-145.69;100.00;71832.22;5074146;28;20291;-74
2022/04/13 03:47:30;;;;;;;2.30;1.67;;;;;;;-145.69;100.00;71836.22;5072257;28;20203;-73
2022/04/13 03:49:56;;;;;;;5.17;1.90;;;;;;;-145.69;100.00;71812.31;5054154;28;20674;-74
2022/04/13 03:52:23;;;;;;;4.37;1.63;;;;;;;-145.69;100.00;71822.28;5053918;28;20574;-74
2022/04/13 03:54:49;;;;;;;4.87;1.90;;;;;;;-145.69;100.00;71828.25;5069147;28;20191;-73
2022/04/13 03:57:17;;;;;;;10.20;1.93;;;;;;;-145.69;100.00;71814.31;5073812;28;20206;-73
2022/04/13 03:59:44;;;;;;;12.73;2.00;;;;;;;-145.69;100.00;71840.19;5074379;28;20301;-73
2022/04/13 04:02:10;;;;;;;3.53;1.77;;;;;;;-145.69;100.00;71830.25;5073791;28;20199;-73
2022/04/13 04:04:37;;;;;;;2.93;1.70;;;;;;;-145.69;100.00;71828.25;5073789;28;20233;-74
2022/04/13 04:07:04;;;;;;;8.90;1.88;;;;;;;-145.69;100.00;71854.13;5072966;28;20380;-73
2022/04/13 04:09:30;;;;;;;6.27;1.80;;;;;;;-145.69;100.00;71887.94;5073875;28;20203;-73
2022/04/13 04:11:56;;;;;;;4.63;1.50;;;;;;;-145.69;100.00;71903.88;5073657;28;20199;-74
2022/04/13 04:14:24;;;;;;;3.93;1.37;;;;;;;-145.69;100.00;71909.84;5073766;28;20206;-73
2022/04/13 04:16:51;;;;;;;6.57;1.73;;;;;;;-145.69;100.00;71907.84;5073608;28;20246;-74
2022/04/13 04:19:17;;;;;;;4.10;2.00;;;;;;;-145.69;100.00;71899.88;5073601;28;20203;-73
2022/04/13 04:21:43;;;;;;;3.27;1.80;;;;;;;-145.69;100.00;71895.91;5073912;28;20252;-73
2022/04/13 04:24:10;;;;;;;5.57;1.80;;;;;;;-145.69;100.00;71903.88;5073328;28;20226;-73
2022/04/13 04:26:36;;;;;;;5.90;2.00;;;;;;;-145.69;100.00;71903.88;5073541;28;20534;-73
2022/04/13 04:29:03;;;;;;;11.43;2.70;;;;;;;-145.69;100.00;71883.97;5073276;28;20616;-74
2022/04/13 04:34:14;;;;;;;4.43;2.13;;;;;;;-145.69;100.00;71889.94;5073382;28;20327;-74
2022/04/13 04:36:41;;;;;;;6.83;2.37;;;;;;;-145.69;100.00;71907.84;5073372;28;20206;-73
2022/04/13 04:39:08;;;;;;;7.03;2.00;;;;;;;-145.69;100.00;71931.72;5073324;28;20210;-74
2022/04/13 04:41:34;;;;;;;8.00;2.93;;;;;;;-145.69;100.00;71919.78;5073316;28;20299;-74
2022/04/13 04:44:01;;;;;;;7.80;4.00;;;;;;;-145.69;100.00;71883.97;5072345;28;20442;-74
2022/04/13 04:46:27;;;;;;;8.07;4.00;;;;;;;-145.69;100.00;71856.09;5073059;28;20535;-74
2022/04/13 04:48:55;;;;;;;6.43;2.47;;;;;;;-145.69;100.00;71897.91;5073474;28;20195;-74
2022/04/13 04:51:21;;;;;;;3.47;2.07;;;;;;;-145.69;100.00;71915.81;5073097;28;20209;-74
2022/04/13 04:53:48;;;;;;;7.93;2.67;;;;;;;-145.69;100.00;71925.75;5073310;28;20203;-74
2022/04/13 04:56:15;;;;;;;2.80;1.90;;;;;;;-145.69;100.00;71941.69;5073099;28;20633;-74
2022/04/13 04:58:42;;;;;;;5.17;2.50;;;;;;;-145.69;100.00;71943.69;5073139;28;20206;-74
2022/04/13 05:01:09;;;;;;;2.97;1.97;;;;;;;-145.69;100.00;71941.69;5073236;28;20206;-74
2022/04/13 05:03:36;;;;;;;6.77;2.17;;;;;;;-145.69;100.00;71949.66;5072874;28;20206;-74
2022/04/13 05:06:04;;;;;;;5.63;1.90;;;;;;;-145.69;100.00;71937.69;5072936;28;20222;-74
2022/04/13 05:08:30;;;;;;;4.73;2.10;;;;;;;-145.69;100.00;71923.78;5072808;28;20198;-73
2022/04/13 05:10:57;;;;;;;5.93;2.40;;;;;;;-145.69;100.00;71891.94;5072882;28;20203;-74
2022/04/13 05:13:23;;;;;;;13.87;4.33;;;;;;;-145.69;100.00;71836.22;5072645;28;20255;-74
2022/04/13 05:15:50;;;;;;;18.27;3.77;;;;;;;-145.69;100.00;71808.34;5072830;28;20230;-73
2022/04/13 05:18:16;;;;;;;8.73;3.57;;;;;;;-145.69;100.00;71800.38;5072356;28;20224;-73
2022/04/13 05:20:43;;;;;;;7.97;2.77;;;;;;;-145.69;100.00;71788.44;5072445;28;20192;-73
2022/04/13 05:23:11;;;;;;;5.83;2.33;;;;;;;-145.69;100.00;71804.38;5072960;28;20206;-73
2022/04/13 05:25:37;;;;;;;5.20;2.00;;;;;;;-145.69;100.00;71816.31;5072489;28;20480;-74
2022/04/13 05:28:04;;;;;;;2.97;1.77;;;;;;;-145.69;100.00;71812.31;5072744;28;20202;-74
2022/04/13 05:30:31;;;;;;;2.77;1.77;;;;;;;-145.69;100.00;71808.34;5072697;28;20673;-74
2022/04/13 05:32:58;;;;;;;6.33;1.80;;;;;;;-145.69;100.00;71808.34;5072458;28;20213;-74
2022/04/13 05:35:25;;;;;;;3.97;2.30;;;;;;;-145.69;100.00;71806.34;5072759;28;20206;-74
2022/04/13 05:37:52;;;;;;;4.13;2.17;;;;;;;-145.69;100.00;71784.47;5072185;28;20237;-74
2022/04/13 05:40:20;;;;;;;5.17;3.07;;;;;;;-145.69;100.00;71748.66;5072603;28;20225;-74
2022/04/13 05:42:47;;;;;;;5.87;2.30;;;;;;;-145.69;100.00;71736.72;5061247;28;20199;-74
2022/04/13 05:45:14;;;;;;;7.97;2.50;;;;;;;-145.69;100.00;71712.81;5052564;28;20242;-74
2022/04/13 05:47:43;;;;;;;6.00;3.20;;;;;;;-145.69;100.00;71690.94;5052003;28;20257;-74
2022/04/13 05:50:10;;;;;;;6.57;2.90;;;;;;;-145.69;100.00;71675.00;5052573;28;20255;-74
2022/04/13 05:52:36;;;;;;;5.57;3.03;;;;;;;-145.69;100.00;71649.16;5051976;28;20199;-74
2022/04/13 05:55:05;;;;;;;7.37;2.57;;;;;;;-145.69;100.00;71641.19;5052239;28;20199;-74
2022/04/13 05:57:33;;;;;;;8.03;3.40;;;;;;;-145.69;100.00;71621.28;5068944;28;20206;-73
2022/04/13 05:59:59;;;;;;;3.53;2.10;;;;;;;-145.69;100.00;71625.25;5072540;28;20214;-73
2022/04/13 06:02:26;;;;;;;4.20;2.50;;;;;;;-145.69;100.00;71627.25;5072673;28;20202;-74
2022/04/13 06:04:52;;;;;;;5.33;2.37;;;;;;;-145.69;100.00;71637.19;5072810;28;20669;-74
2022/04/13 06:07:19;;;;;;;2.93;1.90;;;;;;;-145.69;100.00;71625.25;5072360;28;20543;-74
2022/04/13 06:09:45;;;;;;;3.50;2.10;;;;;;;-145.69;100.00;71619.28;5072415;28;20684;-74
2022/04/13 06:12:12;;;;;;;2.90;1.83;;;;;;;-145.69;100.00;71601.38;5072458;28;20195;-74
2022/04/13 06:14:41;;;;;;;6.23;2.20;;;;;;;-145.69;100.00;71585.47;5071803;28;20199;-74
2022/04/13 06:17:07;;;;;;;4.47;2.00;;;;;;;-145.69;100.00;71571.53;5072388;28;20294;-74
2022/04/13 06:19:34;;;;;;;3.27;1.90;;;;;;;-145.69;100.00;71561.59;5072446;28;20199;-74
2022/04/13 06:22:00;;;;;;;4.57;2.03;;;;;;;-145.69;100.00;71557.59;5072083;28;20199;-74
2022/04/13 06:24:27;;;;;;;4.43;2.17;;;;;;;-145.69;100.00;71549.66;5072317;28;20605;-74
2022/04/13 06:26:53;;;;;;;4.60;2.37;;;;;;;-145.69;100.00;71517.81;5072163;28;20203;-74
2022/04/13 06:29:19;;;;;;;2.53;1.90;;;;;;;-145.69;100.00;71501.88;5072829;28;20199;-74
2022/04/13 06:31:47;;;;;;;4.43;2.10;;;;;;;-145.69;100.00;71478.00;5075446;28;20203;-74
2022/04/13 06:34:16;;;;;;;5.07;2.20;;;;;;;-145.69;100.00;71458.09;5075643;28;20202;-74
2022/04/13 06:36:42;;;;;;;5.57;1.60;;;;;;;-145.69;100.00;71446.16;5075500;28;20202;-74
2022/04/13 06:39:09;;;;;;;3.97;1.60;;;;;;;-145.69;100.00;71422.28;5075593;28;20202;-74
2022/04/13 06:41:35;;;;;;;3.57;1.50;;;;;;;-145.69;98.66;71398.41;5075805;28;20238;-74
2022/04/13 06:44:02;;;;;;;4.53;1.70;;;;;;;-145.69;96.64;71360.59;5075658;28;20209;-74
2022/04/13 06:46:29;;;;;;;6.70;1.83;;;;;;;-145.69;96.82;71346.69;5075177;28;20230;-74
2022/04/13 06:48:56;;;;;;;2.57;1.77;;;;;;;-145.69;97.56;71328.78;5075238;28;20582;-74
2022/04/13 06:51:24;;;;;;;4.00;1.70;;;;;;;-145.69;96.55;71296.94;5075284;28;20202;-74
2022/04/13 06:53:50;;;;;;;3.37;2.10;;;;;;;-145.69;93.84;71269.06;5074906;28;20210;-74
2022/04/13 06:56:18;;;;;;;5.17;1.80;;;;;;;-145.69;90.55;71229.28;5075257;28;20199;-74
2022/04/13 06:58:46;;;;;;;2.83;1.77;;;;;;;-145.69;87.87;71193.47;5074814;28;20689;-74
2022/04/13 07:01:14;;;;;;;3.80;1.80;;;;;;;-145.69;86.24;71159.63;5075009;28;20562;-74
2022/04/13 07:03:40;;;;;;;5.97;1.67;;;;;;;-145.69;85.63;71127.81;5074971;28;20202;-74
2022/04/13 07:06:08;;;;;;;2.85;1.60;;;;;;;-145.69;84.51;71088.00;5075488;28;20230;-74
2022/04/13 07:08:34;;;;;;;4.43;1.90;;;;;;;-145.69;80.09;71072.09;5075359;28;20203;-74
2022/04/13 07:11:01;;;;;;;6.47;1.80;;;;;;;-145.69;80.37;71034.28;5075123;28;20199;-74
2022/04/13 07:13:27;;;;;;;3.33;1.50;;;;;;;-145.69;82.28;71004.44;5075032;28;20211;-76
2022/04/13 07:15:54;;;;;;;3.10;1.40;;;;;;;-145.69;80.08;70994.50;5075033;28;20229;-74
2022/04/13 07:18:20;;;;;;;4.22;1.80;;;;;;;-145.69;74.81;70996.47;5074759;28;20206;-74
2022/04/13 07:20:47;;;;;;;2.70;1.63;;;;;;;-145.69;71.20;70976.59;5074834;28;20202;-75
2022/04/13 07:23:15;;;;;;;4.05;2.10;;;;;;;-145.69;71.05;70960.66;5074804;28;20211;-75
2022/04/13 07:25:41;;;;;;;6.43;2.10;;;;;;;-145.69;73.72;70960.66;5075013;28;20234;-74
2022/04/13 07:28:08;;;;;;;3.92;2.30;;;;;;;-145.69;72.61;70936.78;5074826;28;20194;-74
2022/04/13 07:30:34;;;;;;;5.70;2.20;;;;;;;-145.69;71.56;70928.84;5074738;28;20207;-74
2022/04/13 07:33:02;;;;;;;4.82;2.03;;;;;;;-145.69;67.62;70893.03;5074548;28;20198;-75
2022/04/13 07:35:29;;;;;;;5.22;2.15;;;;;;;-145.69;68.87;70861.19;5074769;28;20199;-75
2022/04/13 07:37:58;;;;;;;6.57;2.00;;;;;;;-145.69;71.79;70825.38;5074294;28;20663;-75
2022/04/13 07:40:26;;;;;;;5.28;2.35;;;;;;;-145.69;65.81;70813.44;5074369;28;20340;-75
2022/04/13 07:42:53;;;;;;;4.32;2.30;;;;;;;-145.69;63.89;70801.50;5074403;28;20199;-74
2022/04/13 07:45:19;;;;;;;6.72;2.53;;;;;;;-145.69;65.40;70801.50;5068821;28;20219;-75
2022/04/13 07:47:45;;;;;;;11.02;3.40;;;;;;;-145.69;66.91;70761.72;5054473;28;20213;-76
2022/04/13 07:50:13;;;;;;;9.80;3.10;;;;;;;-145.69;68.49;70741.81;5054545;28;20234;-76
2022/04/13 07:52:40;;;;;;;7.78;3.65;;;;;;;-145.69;64.01;70737.84;5054337;28;20615;-76
2022/04/13 07:55:09;;;;;;;8.80;3.65;;;;;;;-145.69;59.23;70719.94;5058584;28;20249;-76
2022/04/13 07:57:38;;;;;;;9.15;3.38;;;;;;;-145.69;62.54;70709.97;5074280;28;20199;-75
2022/04/13 08:00:06;;;;;;;10.05;3.30;;;;;;;-145.69;59.38;70698.03;5074120;28;20226;-76
2022/04/13 08:02:34;;;;;;;8.32;3.60;;;;;;;-145.69;55.66;70706.00;5074119;28;20202;-76
2022/04/13 08:05:00;;;;;;;7.88;2.80;;;;;;;-145.69;54.62;70692.06;5059776;28;20198;-76
2022/04/13 08:07:27;;;;;;;6.65;3.28;;;;;;;-145.69;55.08;70690.09;5071720;28;20661;-75
2022/04/13 08:09:53;;;;;;;6.70;2.28;;;;;;;-145.69;53.11;70684.13;5072315;28;20209;-76
2022/04/13 08:12:20;;;;;;;6.95;2.63;;;;;;;-145.69;57.41;70668.19;5071793;28;20191;-75
2022/04/13 08:14:49;;;;;;;8.48;2.38;;;;;;;-145.69;55.34;70672.19;5072393;28;20486;-76
2022/04/13 08:17:16;;;;;;;4.70;2.40;;;;;;;-145.69;58.38;70638.34;5072989;28;20244;-76
2022/04/13 08:19:44;;;;;;;4.22;2.10;;;;;;;-145.69;60.51;70632.38;5073189;28;20688;-75
2022/04/13 08:22:10;;;;;;;12.13;1.90;;;;;;;-145.69;60.31;70658.25;5073591;28;20285;-76
2022/04/13 08:24:37;;;;;;;4.35;1.88;;;;;;;-145.69;61.76;70646.31;5073653;28;20210;-76
2022/04/13 08:27:03;;;;;;;6.30;2.00;;;;;;;-145.69;60.58;70622.44;5073402;28;20237;-76
2022/04/13 08:29:30;;;;;;;8.43;2.75;;;;;;;-145.69;58.65;70626.41;5073504;28;20214;-75
2022/04/13 08:31:58;;;;;;;6.22;1.98;;;;;;;-145.69;57.21;70626.41;5073439;28;20654;-76
2022/04/13 08:34:24;;;;;;;3.25;1.70;;;;;;;-145.69;60.25;70606.53;5073591;28;20203;-76
2022/04/13 08:36:51;;;;;;;9.98;2.17;;;;;;;-145.69;58.04;70574.69;5073411;28;20205;-76
2022/04/13 08:39:17;;;;;;;3.70;1.60;;;;;;;-145.69;54.88;70550.81;5073074;28;20190;-76
2022/04/13 08:41:50;;;;;;;4.50;1.77;;;;;;;-145.69;58.66;70530.94;5073316;28;20203;-76
2022/04/13 08:44:18;;;;;;;4.13;1.45;;;;;;;-145.69;58.23;70534.91;5073539;28;20630;-76
2022/04/13 08:46:47;;;;;;;4.70;1.80;;;;;;;-145.69;58.28;70532.91;5073218;28;20284;-76
2022/04/13 08:49:15;;;;;;;4.32;1.67;;;;;;;-145.69;59.32;70499.09;5073253;28;20210;-76
2022/04/13 08:51:42;;;;;;;5.28;1.90;;;;;;;-145.69;57.28;70505.06;5072614;28;20199;-76
2022/04/13 08:54:14;;;;;;;2.92;1.63;;;;;;;-145.69;60.83;70507.06;5073086;28;20198;-76
2022/04/13 08:56:44;;;;;;;4.85;1.70;;;;;;;-145.69;57.79;70501.09;5073301;28;20230;-76
2022/04/13 08:59:20;;;;;;;7.60;1.88;;;;;;;-145.69;57.96;70517.00;5073259;28;20198;-76
2022/04/13 09:02:04;;;;;;;7.28;1.92;;;;;;;-145.69;60.89;70485.16;5073167;28;20210;-76
2022/04/13 09:04:38;;;;;;;6.22;2.13;;;;;;;-145.69;59.64;70471.25;5072900;28;20221;-76
2022/04/13 09:07:06;;;;;;;4.72;1.58;;;;;;;-145.69;63.34;70479.19;5072920;28;20226;-76
2022/04/13 09:09:38;;;;;;;2.95;1.50;;;;;;;-145.69;64.20;70467.28;5073015;28;20206;-76
2022/04/13 09:12:07;;;;;;;5.57;1.80;;;;;;;-145.69;56.06;70455.34;5073064;28;20210;-76
2022/04/13 09:14:36;;;;;;;5.53;1.90;;;;;;;-145.69;56.79;70467.28;5072779;28;20199;-76
2022/04/13 09:17:03;;;;;;;4.68;1.50;;;;;;;-145.69;61.64;70447.38;5073058;28;20207;-75
2022/04/13 09:19:31;;;;;;;3.60;1.90;;;;;;;-145.69;60.35;70433.44;5072943;28;20226;-76
2022/04/13 09:22:00;;;;;;;7.30;2.00;;;;;;;-145.69;62.26;70431.47;5072757;28;20649;-76
2022/04/13 09:24:28;;;;;;;6.43;1.63;;;;;;;-145.69;60.82;70415.53;5072636;28;20205;-76
2022/04/13 09:26:54;;;;;;;2.97;1.40;;;;;;;-145.69;62.55;70459.31;5072661;28;20707;-76
2022/04/13 09:29:21;;;;;;;4.57;1.65;;;;;;;-145.69;58.77;70435.44;5072617;28;20199;-76
2022/04/13 09:31:48;;;;;;;5.53;1.65;;;;;;;-145.69;60.27;70403.59;5072678;28;20575;-76
2022/04/13 09:34:14;;;;;;;11.70;1.90;;;;;;;-145.69;60.67;70419.53;5072925;28;20202;-75
2022/04/13 09:36:42;;;;;;;6.50;1.70;;;;;;;-145.69;55.88;70403.59;5071718;28;20434;-75
2022/04/13 09:39:11;;;;;;;4.00;1.63;;;;;;;-145.69;61.21;70391.66;5072695;28;20213;-75
2022/04/13 09:41:39;;;;;;;4.47;1.60;;;;;;;-145.69;56.12;70363.81;5072286;28;20194;-75
2022/04/13 09:44:13;;;;;;;4.57;2.00;;;;;;;-145.69;56.52;70363.81;5059442;28;20269;-75
2022/04/13 09:46:40;;;;;;;13.05;1.25;;;;;;;-145.69;55.30;70351.88;5052424;28;20234;-75
2022/04/13 09:49:12;;;;;;;4.82;1.33;;;;;;;-145.69;56.37;70369.78;5052609;28;20230;-75
2022/04/13 09:51:39;;;;;;;4.00;1.63;;;;;;;-145.69;55.06;70359.84;5052606;28;20273;-76
2022/04/13 09:54:08;;;;;;;8.40;1.58;;;;;;;-145.69;52.86;70335.97;5052554;28;20210;-75
2022/04/13 09:56:36;;;;;;;4.38;1.73;;;;;;;-145.69;48.34;70363.81;5052505;28;20294;-76
2022/04/13 09:59:04;;;;;;;11.88;1.30;;;;;;;-145.69;46.80;70351.88;5055762;28;20195;-75
2022/04/13 10:01:33;;;;;;;10.32;1.50;;;;;;;-145.69;47.69;70333.97;5072517;28;20199;-75
2022/04/13 10:03:59;;;;;;;5.25;1.45;;;;;;;-145.69;47.35;70337.97;5072615;28;20222;-76
2022/04/13 10:06:28;;;;;;;8.80;1.60;;;;;;;-145.69;48.97;70343.94;5076075;28;20218;-75
2022/04/13 10:09:01;;;;;;;5.10;1.20;;;;;;;-145.69;45.56;70349.91;5076226;28;20256;-76
2022/04/13 10:11:28;;;;;;;6.85;1.30;;;;;;;-145.69;46.06;70377.75;5076037;28;20615;-76
2022/04/13 10:13:56;;;;;;;3.53;1.35;;;;;;;-145.69;45.29;70367.81;5076268;28;20203;-75
2022/04/13 10:16:23;;;;;;;3.53;1.30;;;;;;;-145.69;44.09;70361.84;5075930;28;20242;-75
2022/04/13 10:18:54;;;;;;;2.42;1.50;;;;;;;-145.69;45.17;70351.88;5075878;28;20195;-76
2022/04/13 10:21:43;;;;;;;5.97;1.98;;;;;;;-145.69;44.75;70355.88;5075923;28;20589;-75
2022/04/13 10:24:11;;;;;;;7.90;1.42;;;;;;;-145.69;46.69;70332.00;5075871;28;20742;-75
2022/04/13 10:26:39;;;;;;;9.70;1.60;;;;;;;-145.69;45.05;70335.97;5075679;28;20269;-75
2022/04/13 10:29:16;;;;;;;10.50;1.85;;;;;;;-145.69;44.48;70330.00;5075801;28;20204;-75
2022/04/13 10:31:50;;;;;;;8.50;1.50;;;;;;;-145.69;45.57;70324.03;5073981;28;20251;-75
2022/04/13 10:34:17;;;;;;;6.80;1.50;;;;;;;-145.69;44.89;70339.94;5075533;28;20201;-75
2022/04/13 10:36:43;;;;;;;6.93;1.30;;;;;;;-145.69;44.46;70367.81;5074057;28;20198;-76
2022/04/13 10:39:10;;;;;;;8.07;1.60;;;;;;;-145.69;44.84;70363.81;5075108;28;20206;-75
2022/04/13 10:41:38;;;;;;;13.52;1.30;;;;;;;-145.69;47.15;70337.97;5075533;28;20210;-76
2022/04/13 10:44:05;;;;;;;7.63;2.03;;;;;;;-145.69;44.49;70339.94;5075655;28;20205;-76
2022/04/13 10:46:34;;;;;;;3.65;1.52;;;;;;;-145.69;45.42;70349.91;5074920;28;20712;-75
2022/04/13 10:49:08;;;;;;;7.80;1.58;;;;;;;-145.69;47.35;70335.97;5075613;28;20210;-76
2022/04/13 10:51:41;;;;;;;6.60;1.52;;;;;;;-145.69;46.31;70326.03;5075433;28;20563;-77
2022/04/13 10:54:10;;;;;;;3.55;1.50;;;;;;;-145.69;47.38;70318.06;5075339;28;20207;-76
2022/04/13 10:56:42;;;;;;;6.13;1.50;;;;;;;-145.69;46.41;70314.09;5075372;28;20241;-76
2022/04/13 10:59:16;;;;;;;4.65;2.05;;;;;;;-145.69;46.16;70292.19;5075246;28;20336;-77
2022/04/13 11:01:46;;;;;;;21.77;7.20;;;;;;;-145.69;47.13;70284.25;5074996;28;20649;-76
2022/04/13 11:04:13;;;;;;;26.65;11.90;;;;;;;-145.69;45.53;70262.38;5073735;28;20227;-77
2022/04/13 11:06:43;;;;;;;127.18;39.08;;;;;;;-145.69;45.00;70290.22;5074687;28;20226;-76
2022/04/13 11:09:16;;;;;;;13.77;2.28;;;;;;;-145.69;43.88;70290.22;5075082;28;20716;-76
2022/04/13 11:11:43;;;;;;;20.17;6.13;;;;;;;-145.69;44.69;70292.19;5074735;28;20207;-76
2022/04/13 11:14:19;;;;;;;8.93;2.47;;;;;;;-145.69;43.92;70280.28;5075162;28;20199;-76
2022/04/13 11:16:47;;;;;;;6.35;1.50;;;;;;;-145.69;43.28;70278.28;5074282;28;20253;-77